Time;durP1;ratioP1;P1;durP2;ratioP2;P2;SDS_P1;SDS_P2;PMS_P1;PMS_P2;Temp;Humidity;BMP_temperature;BMP_pressure;BME280_temperature;BME280_humidity;BME280_pressure;Samples;Min_cycle;Max_cycle;Signal;HPM_P1;HPM_P2
2023/03/21 00:00:21;;;;;;;9.95;6.78;;;9.60;99.90;;;;;;5021690;28;20048;-83
2023/03/21 00:02:47;;;;;;;10.65;6.00;;;9.70;99.90;;;;;;5038040;28;20029;-84
2023/03/21 00:05:12;;;;;;;10.80;5.75;;;9.60;99.90;;;;;;5017810;28;20035;-87
2023/03/21 00:07:38;;;;;;;8.82;5.47;;;9.60;99.90;;;;;;5011858;28;20036;-85
2023/03/21 00:10:04;;;;;;;9.85;5.32;;;9.60;99.90;;;;;;5045600;28;20040;-84
2023/03/21 00:12:31;;;;;;;7.10;4.28;;;9.60;99.90;;;;;;5022986;28;20394;-86
2023/03/21 00:15:03;;;;;;;9.77;5.55;;;9.60;99.90;;;;;;5027565;28;20032;-86
2023/03/21 00:17:31;;;;;;;10.20;6.75;;;9.60;99.90;;;;;;5029385;28;20072;-84
2023/03/21 00:19:58;;;;;;;8.00;4.78;;;9.60;99.90;;;;;;5024752;28;20171;-83
2023/03/21 00:22:24;;;;;;;10.75;5.85;;;9.60;99.90;;;;;;5014330;28;20124;-85
2023/03/21 00:24:51;;;;;;;7.07;4.57;;;9.60;99.90;;;;;;5021279;28;20146;-86
2023/03/21 00:27:18;;;;;;;9.40;5.75;;;9.60;99.90;;;;;;5019163;28;20041;-84
2023/03/21 00:29:48;;;;;;;7.38;4.63;;;9.60;99.90;;;;;;5018906;28;20025;-84
2023/03/21 00:32:17;;;;;;;6.05;4.75;;;9.60;99.90;;;;;;5030932;28;20108;-84
2023/03/21 00:34:44;;;;;;;12.95;7.45;;;9.60;99.90;;;;;;5020599;28;20091;-84
2023/03/21 00:37:13;;;;;;;10.68;6.95;;;9.60;99.90;;;;;;5022766;28;20029;-84
2023/03/21 00:39:41;;;;;;;11.85;6.25;;;9.60;99.90;;;;;;5030224;28;20025;-84
2023/03/21 00:42:07;;;;;;;8.52;5.45;;;9.60;99.90;;;;;;5023839;28;20026;-84
2023/03/21 00:44:35;;;;;;;11.13;5.57;;;9.60;99.90;;;;;;5032450;28;20035;-83
2023/03/21 00:47:07;;;;;;;8.32;5.10;;;9.60;99.90;;;;;;5036239;28;20394;-84
2023/03/21 00:49:33;;;;;;;8.52;4.88;;;9.60;99.90;;;;;;5019174;28;20021;-84
2023/03/21 00:52:03;;;;;;;13.15;7.32;;;9.60;99.90;;;;;;5021261;28;20025;-84
2023/03/21 00:54:30;;;;;;;8.52;5.53;;;9.60;99.90;;;;;;5021842;28;20069;-84
2023/03/21 00:56:56;;;;;;;8.65;4.53;;;9.60;99.90;;;;;;5023906;28;20064;-82
2023/03/21 00:59:21;;;;;;;9.80;6.13;;;9.60;99.90;;;;;;5022728;28;20047;-85
2023/03/21 01:01:47;;;;;;;9.65;5.25;;;9.50;99.90;;;;;;5023379;28;20031;-84
2023/03/21 01:04:15;;;;;;;8.55;6.20;;;9.50;99.90;;;;;;5039692;28;20127;-84
2023/03/21 01:06:42;;;;;;;9.93;6.05;;;9.50;99.90;;;;;;5025354;28;20110;-82
2023/03/21 01:09:18;;;;;;;8.73;5.45;;;9.50;99.90;;;;;;5034972;28;20041;-84
2023/03/21 01:11:44;;;;;;;6.93;5.53;;;9.50;99.90;;;;;;5018266;28;20436;-84
2023/03/21 01:14:12;;;;;;;7.05;4.75;;;9.50;99.90;;;;;;5016477;28;20063;-83
2023/03/21 01:16:37;;;;;;;8.60;4.70;;;9.50;99.90;;;;;;5035300;28;20063;-84
2023/03/21 01:19:05;;;;;;;7.50;4.72;;;9.40;99.90;;;;;;5019393;28;20469;-85
2023/03/21 01:21:31;;;;;;;4.00;3.22;;;9.40;99.90;;;;;;5038305;28;20067;-85
2023/03/21 01:23:57;;;;;;;6.05;4.35;;;9.50;99.90;;;;;;5010765;28;20112;-84
2023/03/21 01:26:24;;;;;;;8.88;5.60;;;9.40;99.90;;;;;;5016840;28;20077;-84
2023/03/21 01:28:49;;;;;;;6.90;4.82;;;9.40;99.90;;;;;;5023439;28;20048;-86
2023/03/21 01:31:16;;;;;;;6.40;4.82;;;9.40;99.90;;;;;;5011500;28;20022;-85
2023/03/21 01:33:43;;;;;;;9.23;5.90;;;9.40;99.90;;;;;;5020895;28;20028;-84
2023/03/21 01:36:17;;;;;;;7.15;5.63;;;9.40;99.90;;;;;;5021212;28;20037;-85
2023/03/21 01:38:43;;;;;;;10.10;7.05;;;9.40;99.90;;;;;;5010293;28;20076;-85
2023/03/21 01:41:32;;;;;;;9.95;5.55;;;9.40;99.90;;;;;;5009700;28;20053;-84
2023/03/21 01:43:58;;;;;;;11.43;7.35;;;9.40;99.90;;;;;;5018564;28;20026;-85
2023/03/21 01:46:43;;;;;;;9.68;6.50;;;9.40;99.90;;;;;;5016381;28;20037;-84
2023/03/21 01:49:33;;;;;;;7.53;5.40;;;9.40;99.90;;;;;;5029595;28;20087;-84
2023/03/21 01:52:16;;;;;;;8.00;5.63;;;9.30;99.90;;;;;;5016594;28;20029;-85
2023/03/21 01:54:45;;;;;;;4.40;3.60;;;9.30;99.90;;;;;;5019321;28;20086;-83
2023/03/21 01:57:31;;;;;;;9.93;5.38;;;9.40;99.90;;;;;;5036773;28;20328;-86
2023/03/21 02:00:06;;;;;;;5.47;4.47;;;9.30;99.90;;;;;;5012024;28;20029;-85
2023/03/21 02:02:54;;;;;;;6.90;4.88;;;9.30;99.90;;;;;;5020217;28;20367;-83
2023/03/21 02:05:47;;;;;;;8.63;5.88;;;9.30;99.90;;;;;;5037191;28;20082;-84
2023/03/21 02:08:15;;;;;;;9.38;6.55;;;9.30;99.90;;;;;;5019258;28;20048;-84
2023/03/21 02:10:45;;;;;;;7.82;5.85;;;9.30;99.90;;;;;;5023863;28;20021;-84
2023/03/21 02:13:15;;;;;;;6.72;4.88;;;9.30;99.90;;;;;;5019081;28;20030;-84
2023/03/21 02:16:04;;;;;;;10.43;7.05;;;9.30;99.90;;;;;;5016886;28;20040;-84
2023/03/21 02:18:56;;;;;;;10.00;6.18;;;9.30;99.90;;;;;;5033956;28;20037;-84
2023/03/21 02:21:41;;;;;;;6.45;5.10;;;9.30;99.90;;;;;;5036983;28;20410;-85
2023/03/21 02:24:08;;;;;;;7.45;4.53;;;9.30;99.90;;;;;;5016946;28;20026;-84
2023/03/21 02:26:36;;;;;;;5.88;3.75;;;9.30;99.90;;;;;;5010489;28;20103;-84
2023/03/21 02:29:24;;;;;;;7.87;5.27;;;9.30;99.90;;;;;;5022194;28;20029;-84
2023/03/21 02:32:22;;;;;;;9.32;5.72;;;9.30;99.90;;;;;;5027121;28;20539;-83
2023/03/21 02:35:06;;;;;;;7.88;4.68;;;9.30;99.90;;;;;;5028124;28;20079;-84
2023/03/21 02:37:52;;;;;;;7.53;6.20;;;9.20;99.90;;;;;;5019726;28;20136;-84
2023/03/21 02:40:32;;;;;;;12.45;8.15;;;9.30;99.90;;;;;;5016783;28;20025;-84
2023/03/21 02:43:29;;;;;;;8.90;6.53;;;9.30;99.90;;;;;;5043144;28;20182;-84
2023/03/21 02:46:19;;;;;;;9.43;6.07;;;9.20;99.90;;;;;;5015140;28;20025;-85
2023/03/21 02:49:01;;;;;;;10.02;6.43;;;9.30;99.90;;;;;;5043243;28;20570;-85
2023/03/21 02:51:31;;;;;;;8.45;5.95;;;9.20;99.90;;;;;;5031121;28;20440;-83
2023/03/21 02:54:03;;;;;;;9.33;6.07;;;9.20;99.90;;;;;;5014834;28;20121;-85
2023/03/21 02:56:32;;;;;;;7.20;4.78;;;9.20;99.90;;;;;;5015664;28;20040;-84
2023/03/21 02:58:59;;;;;;;7.18;5.75;;;9.20;99.90;;;;;;5020536;28;20028;-85
2023/03/21 03:01:25;;;;;;;10.93;6.40;;;9.20;99.90;;;;;;5024496;28;20029;-86
2023/03/21 03:03:51;;;;;;;8.43;5.85;;;9.20;99.90;;;;;;5021250;28;20048;-85
2023/03/21 03:06:25;;;;;;;7.55;5.13;;;9.20;99.90;;;;;;5022085;28;20048;-84
2023/03/21 03:09:00;;;;;;;7.13;4.20;;;9.20;99.90;;;;;;5030381;28;20045;-85
2023/03/21 03:11:40;;;;;;;7.20;4.72;;;9.20;99.90;;;;;;5019603;28;20062;-83
2023/03/21 03:14:31;;;;;;;7.32;5.38;;;9.20;99.90;;;;;;5052182;28;20029;-85
2023/03/21 03:17:21;;;;;;;5.47;4.07;;;9.20;99.90;;;;;;5029193;28;20033;-84
2023/03/21 03:20:13;;;;;;;8.07;5.20;;;9.30;99.90;;;;;;5030821;28;20087;-84
2023/03/21 03:22:54;;;;;;;8.43;5.28;;;9.30;99.90;;;;;;5020097;28;20028;-84
2023/03/21 03:25:47;;;;;;;6.43;5.13;;;9.30;99.90;;;;;;5026714;28;20078;-85
2023/03/21 03:28:18;;;;;;;12.95;7.18;;;9.30;99.90;;;;;;5035632;28;20114;-85
2023/03/21 03:30:46;;;;;;;9.23;5.90;;;9.30;99.90;;;;;;5016607;28;20026;-85
2023/03/21 03:33:15;;;;;;;7.30;5.30;;;9.30;99.90;;;;;;5021326;28;20069;-84
2023/03/21 03:35:43;;;;;;;10.77;6.80;;;9.30;99.90;;;;;;5027774;28;20064;-85
2023/03/21 03:38:11;;;;;;;10.00;6.43;;;9.30;99.90;;;;;;5030352;28;20033;-85
2023/03/21 03:40:41;;;;;;;7.47;5.68;;;9.30;99.90;;;;;;5020643;28;20028;-84
2023/03/21 03:43:20;;;;;;;12.73;6.55;;;9.30;99.90;;;;;;5029167;28;20490;-84
2023/03/21 03:45:53;;;;;;;8.88;5.45;;;9.30;99.90;;;;;;5035156;28;20029;-84
2023/03/21 03:48:34;;;;;;;9.80;5.32;;;9.30;99.90;;;;;;5036949;28;20033;-84
2023/03/21 03:51:05;;;;;;;11.85;5.68;;;9.30;99.90;;;;;;5033973;28;20175;-84
2023/03/21 03:54:13;;;;;;;8.13;4.75;;;9.30;99.90;;;;;;5022852;28;20021;-84
2023/03/21 03:56:39;;;;;;;7.25;4.53;;;9.20;99.90;;;;;;5035070;28;20056;-83
2023/03/21 03:59:06;;;;;;;7.15;4.72;;;9.30;99.90;;;;;;5022618;28;20171;-84
2023/03/21 04:01:50;;;;;;;8.75;4.60;;;9.20;99.90;;;;;;5026331;28;20129;-84
2023/03/21 04:04:16;;;;;;;7.95;4.60;;;9.20;99.90;;;;;;5016877;28;20398;-84
2023/03/21 04:06:50;;;;;;;8.60;3.30;;;9.20;99.90;;;;;;5029757;28;20021;-85
2023/03/21 04:09:18;;;;;;;6.47;4.40;;;9.10;99.90;;;;;;5021162;28;20033;-84
2023/03/21 04:11:44;;;;;;;8.50;4.75;;;9.20;99.90;;;;;;5022776;28;20462;-86
2023/03/21 04:14:09;;;;;;;9.82;4.90;;;9.10;99.90;;;;;;5035172;28;20033;-84
2023/03/21 04:16:36;;;;;;;5.78;4.03;;;9.20;99.90;;;;;;5019311;28;20013;-84
2023/03/21 04:19:02;;;;;;;6.55;3.17;;;9.10;99.90;;;;;;5022996;28;20032;-85
2023/03/21 04:21:28;;;;;;;6.95;3.55;;;9.10;99.90;;;;;;5011472;28;20032;-84
2023/03/21 04:23:54;;;;;;;6.25;3.03;;;9.10;99.90;;;;;;5022264;28;20021;-83
2023/03/21 04:26:23;;;;;;;4.18;2.42;;;9.10;99.90;;;;;;5038150;28;20467;-83
2023/03/21 04:29:09;;;;;;;7.07;3.50;;;9.10;99.90;;;;;;5039364;28;20033;-84
2023/03/21 04:31:53;;;;;;;8.35;2.75;;;9.10;99.90;;;;;;5035707;28;20185;-85
2023/03/21 04:34:22;;;;;;;5.30;2.85;;;9.10;99.90;;;;;;5019856;28;20142;-84
2023/03/21 04:36:52;;;;;;;9.02;3.08;;;9.10;99.90;;;;;;5030497;28;20124;-85
2023/03/21 04:39:20;;;;;;;4.30;2.20;;;9.10;99.90;;;;;;5011721;28;20854;-85
2023/03/21 04:41:48;;;;;;;5.68;2.90;;;9.10;99.90;;;;;;5019668;28;20159;-85
2023/03/21 04:44:15;;;;;;;5.97;3.00;;;9.10;99.90;;;;;;5038272;28;20025;-85
2023/03/21 04:46:41;;;;;;;6.10;2.40;;;9.00;99.90;;;;;;5009553;28;20366;-86
2023/03/21 04:49:09;;;;;;;6.85;3.40;;;9.00;99.90;;;;;;5017564;28;20458;-84
2023/03/21 04:51:35;;;;;;;5.70;2.45;;;9.00;99.90;;;;;;5018508;28;20063;-84
2023/03/21 04:54:02;;;;;;;5.63;2.60;;;9.00;99.90;;;;;;5021812;28;20453;-84
2023/03/21 04:56:33;;;;;;;7.07;2.65;;;9.00;99.90;;;;;;5018464;28;20094;-86
2023/03/21 04:59:02;;;;;;;5.28;1.85;;;9.00;99.90;;;;;;5038308;28;20033;-84
2023/03/21 05:01:30;;;;;;;5.15;2.65;;;9.00;99.90;;;;;;5020924;28;20087;-85
2023/03/21 05:04:00;;;;;;;3.85;2.33;;;9.00;99.90;;;;;;5019926;28;20032;-86
2023/03/21 05:06:29;;;;;;;6.05;2.53;;;9.00;99.90;;;;;;5028272;28;20029;-86
2023/03/21 05:09:00;;;;;;;6.87;2.57;;;9.00;99.90;;;;;;5036478;28;20085;-85
2023/03/21 05:11:30;;;;;;;5.60;2.95;;;9.00;99.90;;;;;;5024624;28;20327;-86
2023/03/21 05:13:56;;;;;;;4.50;2.22;;;9.00;99.90;;;;;;5025541;28;20036;-84
2023/03/21 05:16:25;;;;;;;6.68;3.65;;;9.00;99.90;;;;;;5035212;28;20399;-85
2023/03/21 05:18:53;;;;;;;6.78;3.97;;;9.00;99.90;;;;;;5039309;28;20111;-85
2023/03/21 05:21:21;;;;;;;5.72;3.20;;;9.00;99.90;;;;;;5023329;28;20037;-83
2023/03/21 05:23:53;;;;;;;7.18;3.00;;;9.00;99.90;;;;;;5019566;28;20270;-83
2023/03/21 05:26:23;;;;;;;6.22;2.75;;;9.00;99.90;;;;;;5020389;28;20032;-84
2023/03/21 05:28:58;;;;;;;5.97;2.28;;;9.00;99.90;;;;;;5012044;28;20037;-85
2023/03/21 05:31:24;;;;;;;6.28;3.03;;;8.90;99.90;;;;;;5021536;28;20025;-83
2023/03/21 05:33:55;;;;;;;6.22;2.33;;;8.90;99.90;;;;;;5020307;28;20028;-83
2023/03/21 05:36:21;;;;;;;4.65;2.47;;;8.90;99.90;;;;;;5018656;28;20029;-83
2023/03/21 05:38:46;;;;;;;5.70;2.88;;;8.90;99.90;;;;;;5019591;28;20033;-84
2023/03/21 05:41:15;;;;;;;7.45;3.05;;;8.90;99.90;;;;;;5019949;28;20021;-84
2023/03/21 05:43:41;;;;;;;9.70;3.63;;;8.90;99.90;;;;;;5045575;28;20021;-82
2023/03/21 05:46:10;;;;;;;8.00;3.05;;;8.90;99.90;;;;;;5035257;28;20021;-81
2023/03/21 05:48:36;;;;;;;5.38;2.15;;;8.80;99.90;;;;;;5010828;28;20076;-84
2023/03/21 05:51:14;;;;;;;7.60;2.95;;;8.90;99.90;;;;;;5014560;28;20025;-83
2023/03/21 05:53:40;;;;;;;7.05;2.80;;;8.80;99.90;;;;;;5016577;28;20033;-82
2023/03/21 05:56:07;;;;;;;5.20;2.28;;;8.90;99.90;;;;;;5021580;28;20021;-85
2023/03/21 05:59:02;;;;;;;4.65;2.15;;;8.90;99.90;;;;;;5035200;28;20549;-84
2023/03/21 06:01:30;;;;;;;6.07;1.85;;;8.90;99.90;;;;;;5054370;28;20124;-84
2023/03/21 06:04:05;;;;;;;4.20;2.25;;;8.90;99.90;;;;;;5019961;28;20067;-83
2023/03/21 06:06:32;;;;;;;5.43;2.08;;;8.90;99.90;;;;;;5012793;28;20493;-84
2023/03/21 06:08:59;;;;;;;5.82;2.22;;;8.90;99.90;;;;;;5026713;28;20116;-83
2023/03/21 06:11:28;;;;;;;5.25;2.15;;;8.90;99.90;;;;;;5025081;28;20112;-83
2023/03/21 06:14:11;;;;;;;4.07;1.67;;;8.90;99.90;;;;;;5019784;28;20064;-84
2023/03/21 06:16:37;;;;;;;4.45;1.50;;;8.90;99.90;;;;;;5040616;28;20231;-82
2023/03/21 06:19:03;;;;;;;6.40;1.60;;;8.90;99.90;;;;;;5017460;28;20524;-82
2023/03/21 06:21:55;;;;;;;4.90;1.60;;;9.00;99.90;;;;;;5028452;28;20036;-83
2023/03/21 06:24:21;;;;;;;4.18;1.33;;;9.00;99.90;;;;;;5052819;28;20037;-84
2023/03/21 06:26:47;;;;;;;5.00;1.27;;;9.00;99.90;;;;;;4998741;28;20160;-84
2023/03/21 06:29:13;;;;;;;3.65;1.48;;;9.00;99.90;;;;;;5017511;28;20555;-84
2023/03/21 06:31:41;;;;;;;3.50;1.52;;;9.00;99.90;;;;;;5008858;28;20041;-86
2023/03/21 06:34:09;;;;;;;3.28;1.33;;;9.00;99.90;;;;;;5023352;28;20037;-84
2023/03/21 06:36:35;;;;;;;3.40;1.80;;;9.00;99.90;;;;;;5014701;28;20159;-85
2023/03/21 06:39:01;;;;;;;6.60;3.17;;;9.10;99.90;;;;;;5017193;28;20532;-84
2023/03/21 06:41:27;;;;;;;6.03;2.35;;;9.10;99.90;;;;;;5026775;28;20974;-85
2023/03/21 06:43:59;;;;;;;5.82;2.38;;;9.10;99.90;;;;;;4989521;28;20029;-86
2023/03/21 06:46:25;;;;;;;5.50;1.83;;;9.10;99.90;;;;;;5009274;28;20117;-84
2023/03/21 06:48:50;;;;;;;4.97;1.88;;;9.10;99.90;;;;;;5006915;28;20168;-84
2023/03/21 06:51:16;;;;;;;4.18;1.70;;;9.10;99.90;;;;;;4996459;28;20053;-84
2023/03/21 06:53:55;;;;;;;4.72;2.15;;;9.10;99.90;;;;;;5015983;28;20030;-85
2023/03/21 06:56:37;;;;;;;4.40;2.08;;;9.10;99.90;;;;;;5035993;28;20040;-85
2023/03/21 06:59:03;;;;;;;6.07;2.45;;;9.20;99.90;;;;;;5020996;28;20056;-86
2023/03/21 07:01:49;;;;;;;4.65;1.95;;;9.20;99.90;;;;;;5034059;28;20032;-85
2023/03/21 07:04:15;;;;;;;6.65;2.20;;;9.20;99.90;;;;;;5013457;28;20030;-85
2023/03/21 07:06:41;;;;;;;5.25;2.40;;;9.30;99.90;;;;;;5017768;28;20025;-84
2023/03/21 07:09:26;;;;;;;5.63;2.08;;;9.30;99.90;;;;;;5015337;28;20057;-84
2023/03/21 07:11:55;;;;;;;10.00;3.88;;;9.30;99.90;;;;;;5017128;28;20014;-83
2023/03/21 07:14:25;;;;;;;6.75;2.15;;;9.40;99.90;;;;;;5031555;28;20033;-84
2023/03/21 07:16:50;;;;;;;7.20;3.15;;;9.30;99.90;;;;;;5030233;28;20037;-85
2023/03/21 07:19:17;;;;;;;7.68;4.05;;;9.40;99.90;;;;;;5032078;28;20064;-82
2023/03/21 07:21:42;;;;;;;6.95;3.35;;;9.50;99.90;;;;;;5015259;28;20049;-84
2023/03/21 07:24:08;;;;;;;6.65;3.05;;;9.50;99.90;;;;;;5030748;28;20036;-85
2023/03/21 07:26:34;;;;;;;6.55;2.63;;;9.60;99.90;;;;;;5038125;28;20025;-84
2023/03/21 07:29:02;;;;;;;7.05;2.92;;;9.60;99.90;;;;;;5007776;28;20060;-85
2023/03/21 07:31:28;;;;;;;6.43;3.05;;;9.60;99.90;;;;;;5016056;28;20021;-85
2023/03/21 07:33:54;;;;;;;5.35;2.80;;;9.70;99.90;;;;;;5017633;28;20029;-84
2023/03/21 07:36:21;;;;;;;6.38;2.13;;;9.70;99.90;;;;;;5021180;28;20064;-84
2023/03/21 07:38:47;;;;;;;5.07;1.92;;;9.80;99.90;;;;;;5028766;28;20030;-84
2023/03/21 07:41:14;;;;;;;6.30;2.30;;;9.90;99.90;;;;;;5017074;28;20026;-84
2023/03/21 07:43:40;;;;;;;3.78;1.92;;;9.90;99.90;;;;;;5014221;28;20025;-84
2023/03/21 07:46:08;;;;;;;6.00;2.25;;;9.90;99.90;;;;;;4994902;28;20029;-85
2023/03/21 07:48:34;;;;;;;3.70;1.73;;;10.00;99.90;;;;;;4964392;28;20045;-84
2023/03/21 07:51:01;;;;;;;7.65;2.35;;;10.10;99.90;;;;;;4976534;28;20306;-84
2023/03/21 07:53:34;;;;;;;11.85;4.80;;;10.10;99.90;;;;;;4979734;28;20091;-86
2023/03/21 07:56:00;;;;;;;9.82;3.78;;;10.10;99.90;;;;;;4973396;28;20820;-85
2023/03/21 07:58:27;;;;;;;9.52;3.10;;;10.10;99.90;;;;;;4985240;28;20029;-86
2023/03/21 08:01:03;;;;;;;6.90;3.10;;;10.20;99.90;;;;;;4988747;28;20446;-84
2023/03/21 08:03:31;;;;;;;6.38;2.63;;;10.10;99.90;;;;;;4993409;28;20063;-87
2023/03/21 08:06:00;;;;;;;5.93;2.60;;;10.20;99.90;;;;;;4993010;28;20033;-84
2023/03/21 08:08:26;;;;;;;5.10;2.05;;;10.00;99.90;;;;;;4975190;28;20102;-84
2023/03/21 08:10:51;;;;;;;10.50;3.75;;;10.10;99.90;;;;;;4976954;28;20458;-84
2023/03/21 08:13:17;;;;;;;5.50;2.70;;;10.10;99.90;;;;;;4992614;28;20588;-85
2023/03/21 08:15:43;;;;;;;4.38;2.28;;;10.10;99.90;;;;;;4999834;28;21778;-85
2023/03/21 08:18:10;;;;;;;7.03;3.65;;;10.10;99.90;;;;;;4993207;28;20060;-84
2023/03/21 08:20:36;;;;;;;6.13;2.72;;;10.10;99.90;;;;;;4994139;28;20029;-83
2023/03/21 08:23:02;;;;;;;6.00;2.80;;;10.10;99.90;;;;;;4985546;28;20075;-84
2023/03/21 08:25:28;;;;;;;9.38;2.70;;;10.00;99.90;;;;;;4971947;28;21188;-88
2023/03/21 08:27:53;;;;;;;7.13;3.45;;;10.00;99.90;;;;;;4965681;28;20067;-83
2023/03/21 08:30:25;;;;;;;11.63;3.40;;;9.90;99.90;;;;;;5013374;28;20037;-85
2023/03/21 08:32:54;;;;;;;5.13;2.95;;;9.90;99.90;;;;;;5000133;28;20095;-81
2023/03/21 08:35:20;;;;;;;8.27;3.08;;;10.00;99.90;;;;;;4989051;28;20029;-83
2023/03/21 08:37:46;;;;;;;7.78;2.20;;;10.00;99.90;;;;;;4987430;28;20195;-83
2023/03/21 08:40:19;;;;;;;5.05;2.50;;;10.00;99.90;;;;;;4980929;28;20033;-83
2023/03/21 08:42:51;;;;;;;7.18;2.38;;;10.00;99.90;;;;;;4983559;28;20098;-83
2023/03/21 08:45:17;;;;;;;5.78;2.20;;;10.00;99.90;;;;;;4997109;28;20480;-82
2023/03/21 08:47:43;;;;;;;5.95;2.33;;;10.00;99.90;;;;;;4998944;28;20037;-84
2023/03/21 08:50:13;;;;;;;6.28;2.22;;;10.00;99.90;;;;;;4999628;28;20059;-85
2023/03/21 08:52:39;;;;;;;7.18;2.42;;;10.00;99.90;;;;;;4978816;28;20296;-81
2023/03/21 08:55:05;;;;;;;7.20;2.85;;;10.00;99.90;;;;;;4999967;28;20035;-81
2023/03/21 08:57:31;;;;;;;4.47;2.35;;;10.10;99.90;;;;;;4984617;28;20071;-83
2023/03/21 08:59:56;;;;;;;9.63;2.65;;;10.20;99.90;;;;;;5006296;28;20440;-81
2023/03/21 09:02:22;;;;;;;4.50;1.73;;;10.30;99.90;;;;;;5010289;28;20034;-83
2023/03/21 09:04:48;;;;;;;4.45;1.70;;;10.40;99.90;;;;;;5015331;28;20405;-83
2023/03/21 09:07:16;;;;;;;5.13;1.55;;;10.40;99.90;;;;;;5014095;28;20067;-82
2023/03/21 09:09:42;;;;;;;4.72;2.55;;;10.40;99.90;;;;;;5015127;28;20037;-82
2023/03/21 09:12:08;;;;;;;7.18;2.00;;;10.30;99.90;;;;;;5015782;28;20030;-83
2023/03/21 09:14:34;;;;;;;6.55;2.45;;;10.30;99.90;;;;;;5013856;28;20029;-82
2023/03/21 09:17:00;;;;;;;4.35;1.48;;;10.40;99.90;;;;;;5017299;28;20053;-83
2023/03/21 09:19:26;;;;;;;3.42;1.67;;;10.40;99.90;;;;;;5010943;28;20121;-82
2023/03/21 09:21:53;;;;;;;4.22;1.60;;;10.40;99.90;;;;;;5030588;28;20033;-83
2023/03/21 09:24:19;;;;;;;8.55;2.63;;;10.50;99.90;;;;;;5035506;28;20552;-83
2023/03/21 09:26:45;;;;;;;4.95;2.17;;;10.50;99.90;;;;;;5029680;28;20149;-83
2023/03/21 09:29:11;;;;;;;4.88;1.58;;;10.50;99.90;;;;;;5012945;28;20728;-83
2023/03/21 09:31:38;;;;;;;4.95;1.83;;;10.60;99.90;;;;;;5010878;28;20044;-83
2023/03/21 09:34:04;;;;;;;6.00;1.73;;;10.70;99.90;;;;;;5005676;28;20088;-82
2023/03/21 09:36:31;;;;;;;5.15;1.80;;;10.80;99.90;;;;;;5009058;28;20029;-84
2023/03/21 09:38:56;;;;;;;4.93;1.73;;;10.80;99.90;;;;;;5014849;28;20031;-84
2023/03/21 09:41:52;;;;;;;5.18;2.88;;;10.80;99.90;;;;;;5032366;28;20123;-83
2023/03/21 09:44:23;;;;;;;4.03;1.90;;;10.80;99.90;;;;;;5025188;28;20037;-83
2023/03/21 09:47:01;;;;;;;3.22;1.52;;;10.80;99.90;;;;;;5007998;28;20033;-83
2023/03/21 09:49:34;;;;;;;3.65;1.92;;;10.80;99.90;;;;;;5016108;28;20068;-84
2023/03/21 09:52:11;;;;;;;4.75;1.63;;;10.80;99.90;;;;;;5012939;28;20171;-83
2023/03/21 09:54:44;;;;;;;3.88;1.67;;;10.80;99.90;;;;;;5009273;28;20103;-84
2023/03/21 09:57:45;;;;;;;3.80;1.17;;;10.80;99.90;;;;;;5028105;28;20030;-84
2023/03/21 10:00:24;;;;;;;4.63;2.05;;;10.80;99.90;;;;;;5018174;28;20262;-83
2023/03/21 10:02:53;;;;;;;7.18;1.60;;;10.80;99.90;;;;;;5042358;28;20025;-84
2023/03/21 10:05:24;;;;;;;5.28;1.42;;;10.90;99.90;;;;;;5011731;28;20048;-82
2023/03/21 10:07:50;;;;;;;6.32;1.52;;;10.80;99.90;;;;;;5012988;28;20065;-83
2023/03/21 10:10:26;;;;;;;6.43;1.80;;;10.80;99.90;;;;;;5022729;28;20537;-83
2023/03/21 10:12:53;;;;;;;3.22;1.02;;;10.70;99.90;;;;;;5034181;28;20033;-83
2023/03/21 10:15:22;;;;;;;3.50;1.30;;;10.80;99.90;;;;;;5029492;28;20024;-84
2023/03/21 10:17:57;;;;;;;4.03;1.58;;;10.80;99.90;;;;;;5044709;28;20033;-83
2023/03/21 10:20:25;;;;;;;5.00;1.52;;;10.80;99.90;;;;;;5027669;28;20439;-83
2023/03/21 10:22:53;;;;;;;3.92;1.17;;;10.90;99.90;;;;;;5020770;28;20033;-83
2023/03/21 10:25:31;;;;;;;2.70;1.10;;;11.00;99.90;;;;;;5029160;28;20124;-82
2023/03/21 10:27:59;;;;;;;1.92;0.75;;;11.00;99.90;;;;;;5017821;28;20524;-83
2023/03/21 10:30:37;;;;;;;4.00;0.90;;;11.20;99.90;;;;;;5029408;28;20025;-83
2023/03/21 10:33:08;;;;;;;4.05;1.67;;;11.20;99.90;;;;;;5025901;28;20030;-83
2023/03/21 10:35:36;;;;;;;2.92;1.00;;;11.30;99.90;;;;;;5027380;28;20038;-83
2023/03/21 10:38:04;;;;;;;3.33;1.33;;;11.40;99.90;;;;;;5016607;28;20083;-84
2023/03/21 10:40:30;;;;;;;4.18;1.48;;;11.40;99.90;;;;;;5026875;28;20100;-84
2023/03/21 10:43:14;;;;;;;5.43;1.95;;;11.40;99.90;;;;;;5027678;28;20069;-84
2023/03/21 10:45:39;;;;;;;5.18;2.28;;;11.40;99.90;;;;;;5031398;28;20037;-84
2023/03/21 10:48:06;;;;;;;3.83;1.42;;;11.40;99.90;;;;;;5034660;28;20044;-82
2023/03/21 10:50:32;;;;;;;6.15;1.92;;;11.60;99.90;;;;;;5047973;28;20025;-83
2023/03/21 10:52:59;;;;;;;4.30;1.50;;;11.60;99.90;;;;;;5016255;28;20438;-83
2023/03/21 10:55:39;;;;;;;3.30;1.50;;;11.70;99.90;;;;;;5016934;28;20033;-83
2023/03/21 10:58:09;;;;;;;4.95;2.13;;;11.80;99.90;;;;;;5014527;28;20421;-84
2023/03/21 11:00:40;;;;;;;8.88;2.97;;;11.70;99.90;;;;;;5049162;28;20033;-83
2023/03/21 11:03:19;;;;;;;3.67;2.38;;;11.70;99.90;;;;;;5017861;28;20043;-85
2023/03/21 11:05:45;;;;;;;6.53;1.58;;;11.80;99.90;;;;;;5032339;28;20021;-83
2023/03/21 11:08:17;;;;;;;4.50;1.50;;;12.00;99.90;;;;;;5033107;28;20135;-85
2023/03/21 11:11:00;;;;;;;4.97;1.48;;;12.10;99.90;;;;;;5014191;28;20025;-84
2023/03/21 11:13:33;;;;;;;3.30;1.45;;;12.20;99.90;;;;;;5014917;28;20041;-85
2023/03/21 11:16:30;;;;;;;3.25;1.20;;;12.30;99.90;;;;;;5027130;28;20029;-85
2023/03/21 11:19:01;;;;;;;6.57;1.50;;;12.30;99.90;;;;;;5041792;28;20041;-85
2023/03/21 11:21:34;;;;;;;5.18;1.42;;;12.30;99.90;;;;;;5013835;28;20037;-84
2023/03/21 11:24:01;;;;;;;4.95;1.98;;;12.40;99.90;;;;;;5047260;28;20029;-85
2023/03/21 11:26:31;;;;;;;4.38;2.13;;;12.40;99.90;;;;;;5050295;28;20086;-85
2023/03/21 11:28:57;;;;;;;5.68;1.60;;;12.50;99.90;;;;;;5034303;28;20045;-84
2023/03/21 11:31:37;;;;;;;4.70;1.58;;;12.50;99.90;;;;;;5017696;28;20104;-84
2023/03/21 11:34:06;;;;;;;6.32;1.17;;;12.70;99.90;;;;;;5028890;28;20037;-84
2023/03/21 11:36:37;;;;;;;2.53;1.05;;;12.70;99.90;;;;;;5030564;28;20037;-85
2023/03/21 11:39:14;;;;;;;2.25;1.00;;;12.70;99.90;;;;;;5028846;28;20095;-82
2023/03/21 11:41:41;;;;;;;6.03;1.40;;;12.80;99.90;;;;;;5026891;28;20027;-84
2023/03/21 11:44:25;;;;;;;3.25;1.25;;;12.90;99.90;;;;;;5032611;28;20492;-84
2023/03/21 11:46:50;;;;;;;4.85;1.25;;;12.90;99.90;;;;;;5030303;28;20029;-84
2023/03/21 11:49:16;;;;;;;3.78;1.30;;;12.90;99.90;;;;;;5014867;28;20372;-84
2023/03/21 11:52:12;;;;;;;3.90;1.17;;;12.90;99.90;;;;;;5017363;28;20025;-84
2023/03/21 11:54:50;;;;;;;4.65;1.48;;;13.10;99.90;;;;;;5009129;28;20493;-85
2023/03/21 11:57:27;;;;;;;7.00;1.00;;;13.10;99.90;;;;;;5031393;28;20021;-85
2023/03/21 11:59:57;;;;;;;4.13;1.30;;;13.10;99.90;;;;;;5013380;28;20108;-85
2023/03/21 12:02:28;;;;;;;5.07;1.23;;;13.00;99.90;;;;;;5047684;28;20036;-84
2023/03/21 12:05:18;;;;;;;3.85;1.17;;;13.00;99.90;;;;;;5026456;28;20166;-84
2023/03/21 12:07:44;;;;;;;;;;;12.80;99.90;;;;;;5035687;28;20029;-85
2023/03/21 12:10:30;;;;;;;6.07;1.17;;;12.90;99.90;;;;;;5034895;28;20553;-85
2023/03/21 12:13:14;;;;;;;3.67;0.90;;;13.00;99.90;;;;;;5030630;28;20079;-85
2023/03/21 12:16:11;;;;;;;3.03;1.08;;;13.00;99.90;;;;;;5031157;28;20654;-83
2023/03/21 12:18:49;;;;;;;5.97;1.50;;;13.00;99.90;;;;;;5035735;28;20045;-84
2023/03/21 12:21:38;;;;;;;4.72;0.85;;;12.90;99.90;;;;;;5011536;28;20033;-84
2023/03/21 12:24:21;;;;;;;5.55;1.05;;;13.10;99.90;;;;;;5034365;28;20033;-85
2023/03/21 12:27:10;;;;;;;6.32;1.20;;;13.20;99.90;;;;;;5046349;28;20040;-85
2023/03/21 12:29:50;;;;;;;3.13;1.65;;;13.30;99.90;;;;;;5018003;28;20508;-86
2023/03/21 12:32:31;;;;;;;;;;;13.20;99.90;;;;;;5015008;28;20032;-86
2023/03/21 12:35:15;;;;;;;3.50;1.20;;;13.20;99.90;;;;;;5013039;28;19961;-86
2023/03/21 12:37:51;;;;;;;4.15;1.20;;;13.40;99.90;;;;;;5015888;28;20116;-85
2023/03/21 12:40:48;;;;;;;6.93;1.83;;;13.30;99.90;;;;;;4964231;28;20219;-82
2023/03/21 12:43:40;;;;;;;7.15;1.73;;;13.40;99.90;;;;;;4998578;28;20485;-85
2023/03/21 12:46:17;;;;;;;5.30;1.80;;;13.30;99.90;;;;;;4988786;28;20029;-86
2023/03/21 12:48:54;;;;;;;4.63;1.25;;;13.30;99.90;;;;;;4994706;28;20084;-85
2023/03/21 12:51:28;;;;;;;5.63;1.30;;;13.30;99.90;;;;;;4999267;28;20764;-86
2023/03/21 12:54:14;;;;;;;3.38;1.25;;;13.40;99.90;;;;;;4979986;28;20463;-86
2023/03/21 12:56:58;;;;;;;3.63;1.45;;;13.50;99.90;;;;;;4982561;28;20063;-85
2023/03/21 12:59:32;;;;;;;3.25;0.80;;;13.40;99.90;;;;;;4980770;28;20123;-84
2023/03/21 13:02:19;;;;;;;3.17;1.00;;;13.50;99.90;;;;;;4998598;28;20230;-85
2023/03/21 13:05:15;;;;;;;4.68;0.90;;;13.30;99.90;;;;;;4995663;28;20030;-85
2023/03/21 13:07:44;;;;;;;3.60;0.85;;;13.40;99.90;;;;;;4988554;28;20481;-82
2023/03/21 13:10:16;;;;;;;3.83;1.00;;;13.40;99.90;;;;;;4975411;28;20032;-86
2023/03/21 13:12:49;;;;;;;8.98;1.40;;;13.30;99.90;;;;;;4997872;28;20034;-84
2023/03/21 13:15:30;;;;;;;3.17;1.08;;;13.30;99.90;;;;;;4998165;28;20047;-86
2023/03/21 13:18:24;;;;;;;2.92;0.93;;;13.20;99.90;;;;;;4990670;28;20744;-85